createdAt,value
2019-02-25T00:02:00.736Z,56.60
2019-02-25T00:04:33.026Z,59.20
2019-02-25T00:07:02.876Z,60.67
2019-02-25T00:09:33.725Z,54.60
2019-02-25T00:12:04.933Z,61.17
2019-02-25T00:14:33.861Z,56.90
2019-02-25T00:17:20.971Z,56.60
2019-02-25T00:19:49.813Z,58.20
2019-02-25T00:22:20.728Z,51.60
2019-02-25T00:24:49.565Z,60.30
2019-02-25T00:27:21.110Z,61.87
2019-02-25T00:29:55.050Z,59.00
2019-02-25T00:32:23.910Z,60.93
2019-02-25T00:34:52.731Z,64.00
2019-02-25T00:37:21.552Z,59.37
2019-02-25T00:39:51.709Z,58.13
2019-02-25T00:42:35.509Z,56.90
2019-02-25T00:45:07.385Z,58.30
2019-02-25T00:47:44.337Z,60.27
2019-02-25T00:50:16.561Z,56.10
2019-02-25T00:52:51.581Z,53.23
2019-02-25T00:55:23.692Z,57.20
2019-02-25T00:57:58.781Z,52.43
2019-02-25T01:00:28.129Z,53.93
2019-02-25T01:02:58.191Z,53.33
2019-02-25T01:05:28.111Z,53.87
2019-02-25T01:08:04.388Z,58.27
2019-02-25T01:10:30.219Z,55.07
2019-02-25T01:13:18.949Z,68.17
2019-02-25T01:15:48.924Z,55.17
2019-02-25T01:18:17.895Z,64.50
2019-02-25T01:20:48.264Z,51.50
2019-02-25T01:23:17.045Z,58.07
2019-02-25T01:25:46.240Z,60.00
2019-02-25T01:28:17.374Z,56.00
2019-02-25T01:30:50.775Z,54.00
2019-02-25T01:33:21.486Z,51.77
2019-02-25T01:35:50.515Z,56.17
2019-02-25T01:38:22.244Z,53.30
2019-02-25T01:40:51.327Z,57.13
2019-02-25T01:43:20.343Z,53.70
2019-02-25T01:45:52.323Z,58.90
2019-02-25T01:48:21.945Z,50.53
2019-02-25T01:50:50.782Z,54.80
2019-02-25T01:53:20.533Z,52.23
2019-02-25T01:56:07.271Z,53.83
2019-02-25T01:58:36.029Z,53.73
2019-02-25T02:01:04.950Z,53.57
2019-02-25T02:03:34.076Z,54.43
2019-02-25T02:06:23.107Z,59.83
2019-02-25T02:08:52.210Z,49.70
2019-02-25T02:11:23.061Z,54.90
2019-02-25T02:13:53.271Z,52.97
2019-02-25T02:16:26.703Z,53.47
2019-02-25T02:18:56.561Z,52.40
2019-02-25T02:21:29.200Z,52.00
2019-02-25T02:24:01.925Z,49.83
2019-02-25T02:26:34.740Z,55.00
2019-02-25T02:29:03.527Z,50.90
2019-02-25T02:31:35.216Z,52.37
2019-02-25T02:34:04.141Z,55.10
2019-02-25T02:40:03.603Z,52.97
2019-02-25T02:42:57.323Z,54.53
2019-02-25T02:45:35.339Z,57.57
2019-02-25T02:48:19.271Z,56.67
2019-02-25T02:53:37.417Z,49.50
2019-02-25T02:56:07.726Z,51.70
2019-02-25T02:58:37.819Z,49.93
2019-02-25T03:01:07.136Z,50.63
2019-02-25T03:03:38.121Z,46.17
2019-02-25T03:06:07.033Z,50.27
2019-02-25T03:08:36.180Z,51.53
2019-02-25T03:11:05.256Z,44.97
2019-02-25T03:13:34.118Z,49.17
2019-02-25T03:16:05.260Z,50.67
2019-02-25T03:18:34.151Z,54.43
2019-02-25T03:21:03.018Z,51.93
2019-02-25T03:23:31.818Z,50.30
2019-02-25T03:26:04.952Z,57.73
2019-02-25T03:28:36.894Z,44.20
2019-02-25T03:31:05.985Z,54.07
2019-02-25T03:33:34.702Z,47.50
2019-02-25T03:36:05.568Z,52.13
2019-02-25T03:38:36.050Z,51.63
2019-02-25T03:41:06.098Z,51.57
2019-02-25T03:43:35.049Z,46.03
2019-02-25T03:46:03.862Z,46.70
2019-02-25T03:48:32.775Z,45.03
2019-02-25T03:51:03.986Z,49.00
2019-02-25T03:53:33.305Z,52.33
2019-02-25T03:56:02.119Z,50.97
2019-02-25T03:58:35.263Z,49.70
2019-02-25T04:01:04.615Z,47.77
2019-02-25T04:03:34.651Z,44.73
2019-02-25T04:06:05.305Z,46.00
2019-02-25T04:08:34.228Z,46.60
2019-02-25T04:11:06.192Z,48.97
2019-02-25T04:13:42.945Z,46.27
2019-02-25T04:16:12.559Z,44.00
2019-02-25T04:18:43.513Z,47.27
2019-02-25T04:21:14.384Z,48.63
2019-02-25T04:23:45.607Z,48.83
2019-02-25T04:26:14.635Z,44.57
2019-02-25T04:28:43.528Z,48.50
2019-02-25T04:31:15.554Z,42.47
2019-02-25T04:33:44.323Z,54.27
2019-02-25T04:36:15.247Z,50.93
2019-02-25T04:38:43.912Z,48.80
2019-02-25T04:41:12.692Z,45.27
2019-02-25T04:43:41.757Z,47.73
2019-02-25T04:46:11.716Z,50.13
2019-02-25T04:48:40.669Z,47.80
2019-02-25T04:51:09.487Z,45.03
2019-02-25T04:53:41.019Z,49.47
2019-02-25T04:56:12.794Z,43.10
2019-02-25T04:58:44.903Z,49.47
2019-02-25T05:01:13.954Z,43.90
2019-02-25T05:03:44.416Z,43.37
2019-02-25T05:06:13.219Z,46.80
2019-02-25T05:08:42.090Z,49.40
2019-02-25T05:11:11.059Z,49.10
2019-02-25T05:16:40.047Z,45.10
2019-02-25T05:19:18.020Z,53.50
2019-02-25T05:21:46.902Z,53.60
2019-02-25T05:24:17.636Z,54.20
2019-02-25T05:26:46.484Z,54.37
2019-02-25T05:29:16.244Z,45.27
2019-02-25T05:31:48.164Z,48.23
2019-02-25T05:34:19.002Z,55.33
2019-02-25T05:36:47.910Z,51.20
2019-02-25T05:39:48.885Z,52.27
2019-02-25T05:42:24.129Z,55.87
2019-02-25T05:44:53.175Z,52.47
2019-02-25T05:47:21.880Z,47.93
2019-02-25T05:49:51.818Z,54.77
2019-02-25T05:52:21.135Z,50.40
2019-02-25T05:54:53.303Z,48.93
2019-02-25T05:57:22.399Z,57.13
2019-02-25T05:59:53.020Z,55.83
2019-02-25T06:02:21.806Z,58.20
2019-02-25T06:05:06.535Z,49.47
2019-02-25T06:07:46.149Z,51.03
2019-02-25T06:10:18.274Z,52.13
2019-02-25T06:13:06.614Z,51.70
2019-02-25T06:15:35.687Z,49.30
2019-02-25T06:18:13.441Z,58.93
2019-02-25T06:20:42.597Z,53.40
2019-02-25T06:23:11.472Z,49.90
2019-02-25T06:25:44.528Z,54.63
2019-02-25T06:28:15.066Z,59.20
2019-02-25T06:30:44.002Z,48.40
2019-02-25T06:33:12.997Z,52.20
2019-02-25T06:35:41.946Z,48.87
2019-02-25T06:38:10.985Z,46.90
2019-02-25T06:40:40.046Z,47.57
2019-02-25T06:43:11.192Z,50.03
2019-02-25T06:45:44.263Z,46.70
2019-02-25T06:48:13.084Z,49.67
2019-02-25T06:50:42.532Z,50.73
2019-02-25T06:53:11.474Z,44.77
2019-02-25T06:55:40.543Z,54.77
2019-02-25T06:58:15.509Z,54.60
2019-02-25T07:00:40.178Z,62.87
2019-02-25T07:03:09.015Z,50.10
2019-02-25T07:05:56.859Z,57.47
2019-02-25T07:08:44.005Z,50.33
2019-02-25T07:11:32.073Z,53.33
2019-02-25T07:14:04.363Z,47.60
2019-02-25T07:16:53.430Z,53.70
2019-02-25T07:19:23.880Z,49.23
2019-02-25T07:21:56.916Z,51.33
2019-02-25T07:24:36.590Z,50.53
2019-02-25T07:27:10.822Z,49.87
2019-02-25T07:29:50.403Z,57.87
2019-02-25T07:32:46.255Z,55.43
2019-02-25T07:35:19.763Z,53.70
2019-02-25T07:40:41.741Z,49.77
2019-02-25T07:43:12.399Z,48.70
2019-02-25T07:45:57.732Z,54.40
2019-02-25T07:48:33.969Z,47.53
2019-02-25T07:51:04.363Z,50.43
2019-02-25T07:53:43.726Z,47.90
2019-02-25T07:56:17.200Z,50.13
2019-02-25T07:58:59.649Z,52.00
2019-02-25T08:01:36.072Z,48.43
2019-02-25T08:04:15.581Z,53.83
2019-02-25T08:06:46.191Z,52.87
2019-02-25T08:09:25.487Z,49.77
2019-02-25T08:12:13.880Z,47.80
2019-02-25T08:14:50.401Z,45.27
2019-02-25T08:17:26.973Z,51.17
2019-02-25T08:20:12.806Z,45.23
2019-02-25T08:22:47.737Z,51.37
2019-02-25T08:25:22.579Z,50.80
2019-02-25T08:28:12.505Z,50.03
2019-02-25T08:30:49.133Z,50.43
2019-02-25T08:33:36.202Z,48.27
2019-02-25T08:36:28.194Z,47.90
2019-02-25T08:39:01.596Z,55.57
2019-02-25T08:41:31.995Z,48.00
2019-02-25T08:44:04.750Z,49.87
2019-02-25T08:46:42.700Z,50.10
2019-02-25T08:49:22.354Z,45.60
2019-02-25T08:51:51.067Z,45.47
2019-02-25T08:54:20.073Z,54.03
2019-02-25T08:56:50.643Z,47.23
2019-02-25T08:59:19.734Z,51.20
2019-02-25T09:01:50.541Z,47.27
2019-02-25T09:04:19.272Z,53.33
2019-02-25T09:06:48.330Z,49.57
2019-02-25T09:09:17.119Z,47.00
2019-02-25T09:11:46.081Z,49.20
2019-02-25T09:14:14.978Z,49.40
2019-02-25T09:16:51.075Z,48.30
2019-02-25T09:19:28.196Z,51.23
2019-02-25T09:22:04.926Z,48.85
2019-02-25T09:24:45.773Z,49.27
2019-02-25T09:27:18.988Z,55.45
2019-02-25T09:29:49.843Z,53.15
2019-02-25T09:32:25.336Z,52.88
2019-02-25T09:34:57.774Z,51.75
2019-02-25T09:37:33.793Z,50.25
2019-02-25T09:40:17.346Z,48.98
2019-02-25T09:42:50.271Z,52.27
2019-02-25T09:45:22.385Z,52.30
2019-02-25T09:47:54.627Z,52.03
2019-02-25T09:50:23.993Z,48.25
2019-02-25T09:52:53.087Z,51.70
2019-02-25T09:58:11.360Z,51.55
2019-02-25T10:00:46.035Z,53.65
2019-02-25T10:03:16.426Z,48.10
2019-02-25T10:05:56.601Z,58.13
2019-02-25T10:08:29.801Z,50.90
2019-02-25T10:10:59.446Z,49.18
2019-02-25T10:13:28.799Z,54.20
2019-02-25T10:16:00.995Z,51.73
2019-02-25T10:18:29.849Z,57.48
2019-02-25T10:21:00.722Z,51.70
2019-02-25T10:23:32.943Z,54.70
2019-02-25T10:26:02.954Z,50.20
2019-02-25T10:28:33.735Z,54.90
2019-02-25T10:31:08.329Z,47.95
2019-02-25T10:33:41.054Z,56.42
2019-02-25T10:36:09.867Z,51.18
2019-02-25T10:38:38.893Z,51.20
2019-02-25T10:41:07.847Z,52.03
2019-02-25T10:43:41.013Z,49.50
2019-02-25T10:46:12.966Z,58.17
2019-02-25T10:48:44.032Z,56.23
2019-02-25T10:51:13.692Z,57.58
2019-02-25T10:53:43.108Z,51.83
2019-02-25T10:56:19.978Z,54.58
2019-02-25T10:58:49.682Z,52.43
2019-02-25T11:01:19.898Z,53.70
2019-02-25T11:03:50.046Z,52.50
2019-02-25T11:06:19.608Z,51.30
2019-02-25T11:08:50.098Z,55.20
2019-02-25T11:11:22.636Z,51.28
2019-02-25T11:13:51.395Z,56.42
2019-02-25T11:16:20.426Z,54.80
2019-02-25T11:18:54.021Z,52.58
2019-02-25T11:21:21.589Z,50.38
2019-02-25T11:23:51.675Z,54.23
2019-02-25T11:26:20.670Z,50.45
2019-02-25T11:28:49.623Z,50.35
2019-02-25T11:31:22.848Z,50.80
2019-02-25T11:33:49.695Z,54.33
2019-02-25T11:36:20.150Z,52.83
2019-02-25T11:38:49.042Z,58.13
2019-02-25T11:41:17.864Z,51.73
2019-02-25T11:43:48.676Z,52.58
2019-02-25T11:46:17.507Z,56.80
2019-02-25T11:48:47.604Z,55.37
2019-02-25T11:51:16.819Z,54.95
2019-02-25T11:53:45.648Z,58.93
2019-02-25T11:56:14.459Z,58.38
2019-02-25T11:58:43.389Z,56.63
2019-02-25T12:01:12.512Z,60.87
2019-02-25T12:03:41.418Z,56.20
2019-02-25T12:06:10.328Z,55.33
2019-02-25T12:08:39.181Z,54.50
2019-02-25T12:11:09.094Z,54.27
2019-02-25T12:13:39.417Z,57.80
2019-02-25T12:16:08.314Z,53.90
2019-02-25T12:18:38.685Z,56.07
2019-02-25T12:21:09.048Z,53.77
2019-02-25T12:23:37.772Z,57.97
2019-02-25T12:26:06.638Z,52.37
2019-02-25T12:28:35.737Z,61.77
2019-02-25T12:31:04.608Z,61.40
2019-02-25T12:33:33.458Z,56.10
2019-02-25T12:36:03.865Z,65.43
2019-02-25T12:38:32.888Z,61.10
2019-02-25T12:41:06.020Z,58.70
2019-02-25T12:43:34.907Z,58.53
2019-02-25T12:46:09.143Z,57.03
2019-02-25T12:48:37.264Z,65.63
2019-02-25T12:51:06.315Z,64.73
2019-02-25T12:53:37.698Z,68.00
2019-02-25T12:56:05.778Z,65.70
2019-02-25T12:58:34.969Z,61.60
2019-02-25T13:01:03.838Z,67.83
2019-02-25T13:03:32.596Z,65.03
2019-02-25T13:06:01.728Z,72.27
2019-02-25T13:08:33.998Z,69.40
2019-02-25T13:11:04.512Z,63.57
2019-02-25T13:13:35.603Z,71.00
2019-02-25T13:16:06.022Z,67.60
2019-02-25T13:18:34.776Z,69.90
2019-02-25T13:21:03.635Z,62.53
2019-02-25T13:23:32.574Z,71.27
2019-02-25T13:26:07.439Z,65.90
2019-02-25T13:28:36.355Z,64.10
2019-02-25T13:31:05.679Z,62.47
2019-02-25T13:33:35.689Z,69.37
2019-02-25T13:36:07.494Z,66.63
2019-02-25T13:38:36.306Z,64.37
2019-02-25T13:41:05.097Z,72.27
2019-02-25T13:43:33.872Z,74.57
2019-02-25T13:46:04.261Z,73.27
2019-02-25T13:48:35.732Z,74.40
2019-02-25T13:51:04.659Z,71.47
2019-02-25T13:53:33.620Z,71.50
2019-02-25T13:56:02.745Z,80.67
2019-02-25T13:58:31.651Z,70.23
2019-02-25T14:01:02.298Z,69.83
2019-02-25T14:03:31.314Z,72.07
2019-02-25T14:06:00.358Z,74.13
2019-02-25T14:08:29.771Z,72.40
2019-02-25T14:10:58.594Z,75.63
2019-02-25T14:13:32.587Z,76.83
2019-02-25T14:16:01.374Z,73.97
2019-02-25T14:18:30.346Z,72.17
2019-02-25T14:20:59.228Z,73.93
2019-02-25T14:23:28.093Z,75.57
2019-02-25T14:25:59.199Z,68.40
2019-02-25T14:28:30.054Z,75.20
2019-02-25T14:31:13.869Z,82.13
2019-02-25T14:33:42.936Z,78.77
2019-02-25T14:36:11.735Z,83.83
2019-02-25T14:38:40.815Z,77.07
2019-02-25T14:41:11.690Z,79.60
2019-02-25T14:43:45.564Z,76.13
2019-02-25T14:46:16.505Z,79.20
2019-02-25T14:48:45.169Z,79.43
2019-02-25T14:51:14.670Z,88.37
2019-02-25T14:53:44.798Z,88.83
2019-02-25T14:56:14.225Z,94.67
2019-02-25T14:58:47.767Z,81.57
2019-02-25T15:01:18.144Z,88.13
2019-02-25T15:03:47.658Z,92.93
2019-02-25T15:06:19.717Z,87.73
2019-02-25T15:08:48.644Z,83.50
2019-02-25T15:11:17.702Z,94.80
2019-02-25T15:13:46.732Z,89.63
2019-02-25T15:16:15.732Z,92.77
2019-02-25T15:18:44.813Z,97.57
2019-02-25T15:21:15.904Z,97.00
2019-02-25T15:23:44.554Z,100.23
2019-02-25T15:27:11.004Z,89.10
2019-02-25T15:29:44.731Z,96.17
2019-02-25T15:32:14.023Z,101.13
2019-02-25T15:34:43.224Z,96.87
2019-02-25T15:37:13.858Z,101.07
2019-02-25T15:39:45.190Z,94.83
2019-02-25T15:42:14.679Z,105.17
2019-02-25T15:44:44.543Z,101.50
2019-02-25T15:47:15.074Z,101.93
2019-02-25T15:49:44.395Z,111.80
2019-02-25T15:52:16.531Z,108.63
2019-02-25T15:54:47.863Z,109.77
2019-02-25T15:57:20.606Z,107.93
2019-02-25T15:59:49.601Z,107.73
2019-02-25T16:02:18.632Z,112.30
2019-02-25T16:04:47.425Z,111.67
2019-02-25T16:07:17.103Z,115.63
2019-02-25T16:09:46.590Z,115.70
2019-02-25T16:12:15.521Z,113.30
2019-02-25T16:14:44.905Z,116.47
2019-02-25T16:17:14.633Z,121.70
2019-02-25T16:19:47.343Z,123.57
2019-02-25T16:22:14.034Z,125.33
2019-02-25T16:24:43.664Z,119.97
2019-02-25T16:27:12.681Z,115.50
2019-02-25T16:29:41.615Z,131.03
2019-02-25T16:32:10.514Z,119.57
2019-02-25T16:34:40.613Z,122.07
2019-02-25T16:37:17.696Z,137.20
2019-02-25T16:39:46.821Z,129.33
2019-02-25T16:42:15.771Z,131.00
2019-02-25T16:44:44.946Z,144.83
2019-02-25T16:47:15.873Z,147.63
2019-02-25T16:49:44.456Z,158.27
2019-02-25T16:52:13.837Z,154.87
2019-02-25T16:54:44.064Z,138.43
2019-02-25T16:57:16.373Z,139.53
2019-02-25T16:59:45.159Z,125.57
2019-02-25T17:02:14.281Z,128.37
2019-02-25T17:04:43.435Z,124.40
2019-02-25T17:07:14.357Z,135.37
2019-02-25T17:09:44.477Z,126.57
2019-02-25T17:12:13.582Z,125.50
2019-02-25T17:14:50.438Z,130.57
2019-02-25T17:17:19.463Z,121.00
2019-02-25T17:19:48.665Z,119.13
2019-02-25T17:22:20.201Z,124.63
2019-02-25T17:24:52.462Z,128.77
2019-02-25T17:27:20.723Z,122.90
2019-02-25T17:30:15.330Z,128.23
2019-02-25T17:32:46.632Z,121.40
2019-02-25T17:35:19.002Z,125.00
2019-02-25T17:37:48.053Z,121.47
2019-02-25T17:40:20.415Z,111.67
2019-02-25T17:42:51.713Z,101.63
2019-02-25T17:45:25.096Z,116.03
2019-02-25T17:47:58.173Z,109.50
2019-02-25T17:50:24.791Z,108.47
2019-02-25T17:52:53.707Z,117.17
2019-02-25T17:55:27.070Z,115.37
2019-02-25T17:58:38.582Z,119.67
2019-02-25T18:01:09.278Z,115.90
2019-02-25T18:03:39.631Z,118.43
2019-02-25T18:06:08.797Z,124.40
2019-02-25T18:08:39.338Z,131.67
2019-02-25T18:11:08.501Z,130.87
2019-02-25T18:13:37.297Z,150.20
2019-02-25T18:16:07.992Z,149.90
2019-02-25T18:18:41.332Z,159.53
2019-02-25T18:21:14.885Z,162.73
2019-02-25T18:23:44.083Z,169.87
2019-02-25T18:26:14.949Z,167.53
2019-02-25T18:28:46.677Z,160.03
2019-02-25T18:31:16.588Z,159.80
2019-02-25T18:34:04.867Z,153.40
2019-02-25T18:36:34.319Z,160.80
2019-02-25T18:39:03.171Z,163.37
2019-02-25T18:41:34.223Z,154.30
2019-02-25T18:44:04.831Z,152.80
2019-02-25T18:46:36.840Z,158.50
2019-02-25T18:49:07.389Z,152.70
2019-02-25T18:51:37.465Z,146.17
2019-02-25T18:54:06.989Z,157.13
2019-02-25T18:56:40.233Z,155.33
2019-02-25T18:59:13.708Z,157.97
2019-02-25T19:01:39.857Z,142.93
2019-02-25T19:04:17.571Z,160.10
2019-02-25T19:06:51.563Z,150.33
2019-02-25T19:09:23.188Z,156.40
2019-02-25T19:11:54.006Z,140.50
2019-02-25T19:14:28.845Z,155.87
2019-02-25T19:17:01.913Z,144.87
2019-02-25T19:19:34.062Z,146.07
2019-02-25T19:22:05.944Z,147.27
2019-02-25T19:24:39.817Z,152.20
2019-02-25T19:27:09.152Z,161.87
2019-02-25T19:29:40.435Z,153.87
2019-02-25T19:32:09.298Z,149.27
2019-02-25T19:34:39.780Z,156.10
2019-02-25T19:37:12.646Z,141.73
2019-02-25T19:39:44.506Z,152.30
2019-02-25T19:42:18.203Z,150.90
2019-02-25T19:44:48.670Z,145.97
2019-02-25T19:47:19.340Z,153.47
2019-02-25T19:49:48.818Z,153.17
2019-02-25T19:52:18.685Z,152.63
2019-02-25T19:54:50.743Z,156.33
2019-02-25T19:57:21.690Z,152.17
2019-02-25T19:59:52.985Z,140.23
2019-02-25T20:02:22.591Z,129.67
2019-02-25T20:04:55.566Z,140.80
2019-02-25T20:07:26.511Z,153.13
2019-02-25T20:10:00.290Z,152.13
2019-02-25T20:12:43.781Z,145.27
2019-02-25T20:15:37.515Z,140.57
2019-02-25T20:18:02.996Z,139.63
2019-02-25T20:21:03.991Z,152.27
2019-02-25T20:23:31.917Z,142.80
2019-02-25T20:26:01.465Z,152.47
2019-02-25T20:28:30.540Z,155.93
2019-02-25T20:31:06.157Z,156.47
2019-02-25T20:33:50.903Z,147.97
2019-02-25T20:36:19.238Z,153.43
2019-02-25T20:38:46.308Z,170.97
2019-02-25T20:41:17.933Z,161.40
2019-02-25T20:43:47.243Z,149.70
2019-02-25T20:46:19.948Z,167.30
2019-02-25T20:48:50.495Z,174.73
2019-02-25T20:51:32.053Z,182.57
2019-02-25T20:54:08.848Z,184.70
2019-02-25T20:56:37.843Z,183.40
2019-02-25T20:59:10.545Z,188.17
2019-02-25T21:01:46.681Z,176.13
2019-02-25T21:04:27.694Z,185.20
2019-02-25T21:06:56.794Z,190.07
2019-02-25T21:09:29.160Z,196.87
2019-02-25T21:12:00.761Z,192.63
2019-02-25T21:14:37.999Z,200.60
2019-02-25T21:17:09.349Z,201.03
2019-02-25T21:19:44.321Z,197.83
2019-02-25T21:22:29.486Z,203.80
2019-02-25T21:25:07.384Z,192.53
2019-02-25T21:27:49.502Z,186.70
2019-02-25T21:30:37.059Z,190.37
2019-02-25T21:33:02.047Z,181.13
2019-02-25T21:35:41.964Z,213.90
2019-02-25T21:38:22.208Z,193.07
2019-02-25T21:40:48.420Z,195.03
2019-02-25T21:43:26.358Z,221.47
2019-02-25T21:45:54.774Z,201.87
2019-02-25T21:48:25.664Z,196.50
2019-02-25T21:50:58.108Z,200.53
2019-02-25T21:53:26.428Z,193.10
2019-02-25T21:56:02.948Z,202.57
2019-02-25T21:58:42.942Z,216.53
2019-02-25T22:01:20.915Z,213.00
2019-02-25T22:03:52.610Z,208.87
2019-02-25T22:06:53.360Z,197.30
2019-02-25T22:09:36.017Z,204.73
2019-02-25T22:12:10.425Z,178.70
2019-02-25T22:14:47.624Z,181.67
2019-02-25T22:17:31.966Z,200.23
2019-02-25T22:22:37.547Z,193.97
2019-02-25T22:25:27.617Z,195.60
2019-02-25T22:28:09.952Z,201.97
2019-02-25T22:33:43.812Z,197.67
2019-02-25T22:36:32.737Z,196.30
2019-02-25T22:39:09.019Z,200.90
2019-02-25T22:41:52.021Z,201.43
2019-02-25T22:47:25.027Z,179.57
2019-02-25T22:53:22.594Z,172.33
2019-02-25T22:56:11.852Z,163.83
2019-02-25T22:58:45.098Z,160.00
2019-02-25T23:01:26.276Z,178.73
2019-02-25T23:05:05.057Z,166.97
2019-02-25T23:07:02.952Z,165.10
2019-02-25T23:09:41.033Z,167.63
2019-02-25T23:12:11.551Z,167.10
2019-02-25T23:14:50.591Z,165.53
2019-02-25T23:17:23.891Z,164.83
2019-02-25T23:20:27.248Z,176.27
2019-02-25T23:24:47.420Z,174.23
2019-02-25T23:27:04.905Z,166.97
2019-02-25T23:32:33.775Z,151.53
2019-02-25T23:44:37.938Z,171.93
2019-02-25T23:47:12.862Z,169.17
2019-02-25T23:49:50.085Z,165.60
2019-02-25T23:52:30.996Z,165.17
2019-02-25T23:56:13.980Z,159.60
2019-02-25T23:58:20.232Z,170.50
